createdAt,value
2022-12-09T00:01:17.783Z,99748.91
2022-12-09T00:03:45.133Z,99758.59
2022-12-09T00:06:16.531Z,99757.75
2022-12-09T00:08:44.432Z,99757.75
2022-12-09T00:11:11.798Z,99760.50
2022-12-09T00:13:38.809Z,99759.41
2022-12-09T00:16:14.041Z,99763.84
2022-12-09T00:18:41.841Z,99758.81
2022-12-09T00:21:20.002Z,99756.31
2022-12-09T00:23:48.191Z,99755.97
2022-12-09T00:26:16.390Z,99748.06
2022-12-09T00:28:43.859Z,99768.03
2022-12-09T00:31:14.822Z,99764.31
2022-12-09T00:33:42.300Z,99756.31
2022-12-09T00:36:15.702Z,99749.03
2022-12-09T00:38:43.236Z,99758.00
2022-12-09T00:41:11.097Z,99753.81
2022-12-09T00:43:38.168Z,99751.44
2022-12-09T00:46:06.034Z,99752.00
2022-12-09T00:48:38.673Z,99752.50
2022-12-09T00:51:07.765Z,99757.53
2022-12-09T00:53:34.853Z,99763.25
2022-12-09T00:56:02.202Z,99763.00
2022-12-09T00:58:29.247Z,99767.66
2022-12-09T01:00:56.302Z,99767.91
2022-12-09T01:03:24.380Z,99765.03
2022-12-09T01:05:51.667Z,99763.00
2022-12-09T01:08:19.302Z,99760.38
2022-12-09T01:10:46.839Z,99770.66
2022-12-09T01:13:14.907Z,99773.88
2022-12-09T01:15:42.455Z,99767.78
2022-12-09T01:18:11.124Z,99773.66
2022-12-09T01:20:38.375Z,99777.81
2022-12-09T01:23:05.447Z,99769.66
2022-12-09T01:25:32.833Z,99760.34
2022-12-09T01:28:00.448Z,99762.28
2022-12-09T01:30:27.749Z,99758.72
2022-12-09T01:32:54.821Z,99766.41
2022-12-09T01:35:21.848Z,99759.19
2022-12-09T01:37:49.237Z,99755.13
2022-12-09T01:40:17.717Z,99752.50
2022-12-09T01:42:45.540Z,99752.75
2022-12-09T01:45:22.224Z,99746.53
2022-12-09T01:48:04.608Z,99745.81
2022-12-09T01:50:33.268Z,99742.25
2022-12-09T01:53:00.472Z,99736.00
2022-12-09T01:55:28.419Z,99740.69
2022-12-09T01:57:56.154Z,99737.81
2022-12-09T02:00:23.523Z,99731.94
2022-12-09T02:02:51.795Z,99747.25
2022-12-09T02:05:20.319Z,99734.09
2022-12-09T02:07:53.653Z,99740.19
2022-12-09T02:10:21.214Z,99732.88
2022-12-09T02:13:45.019Z,99737.22
2022-12-09T02:16:17.243Z,99732.88
2022-12-09T02:18:52.469Z,99734.69
2022-12-09T02:21:43.365Z,99737.94
2022-12-09T02:24:20.797Z,99730.03
2022-12-09T02:26:56.335Z,99737.22
2022-12-09T02:29:44.995Z,99734.56
2022-12-09T02:32:40.085Z,99734.81
2022-12-09T02:35:21.887Z,99740.31
2022-12-09T02:38:05.592Z,99738.16
2022-12-09T02:40:54.852Z,99740.78
2022-12-09T02:43:26.834Z,99738.41
2022-12-09T02:45:56.729Z,99734.34
2022-12-09T02:48:27.044Z,99734.47
2022-12-09T02:50:54.660Z,99738.88
2022-12-09T02:53:23.504Z,99729.31
2022-12-09T02:55:51.949Z,99730.88
2022-12-09T02:58:20.222Z,99731.34
2022-12-09T03:00:47.931Z,99724.06
2022-12-09T03:03:17.001Z,99720.47
2022-12-09T03:05:57.654Z,99717.47
2022-12-09T03:08:43.323Z,99730.88
2022-12-09T03:11:10.772Z,99718.56
2022-12-09T03:13:48.202Z,99721.75
2022-12-09T03:16:23.813Z,99713.03
2022-12-09T03:19:08.386Z,99707.66
2022-12-09T03:21:40.205Z,99703.34
2022-12-09T03:24:09.101Z,99699.19
2022-12-09T03:26:38.354Z,99704.59
2022-12-09T03:29:11.619Z,99714.84
2022-12-09T03:31:39.629Z,99705.75
2022-12-09T03:34:07.787Z,99699.78
2022-12-09T03:36:38.509Z,99699.63
2022-12-09T03:39:12.203Z,99697.72
2022-12-09T03:41:45.002Z,99702.97
2022-12-09T03:44:16.966Z,99696.78
2022-12-09T03:46:44.475Z,99701.78
2022-12-09T03:49:12.203Z,99700.09
2022-12-09T03:51:52.267Z,99696.53
2022-12-09T03:54:55.278Z,99700.09
2022-12-09T03:57:23.188Z,99696.78
2022-12-09T03:59:58.057Z,99698.44
2022-12-09T04:02:25.492Z,99700.34
2022-12-09T04:04:53.449Z,99696.81
2022-12-09T04:07:20.799Z,99692.28
2022-12-09T04:09:47.888Z,99694.50
2022-12-09T04:12:15.744Z,99694.63
2022-12-09T04:14:43.360Z,99688.22
2022-12-09T04:17:11.221Z,99687.84
2022-12-09T04:19:41.967Z,99692.00
2022-12-09T04:22:09.125Z,99685.34
2022-12-09T04:24:36.270Z,99690.63
2022-12-09T04:27:03.632Z,99686.91
2022-12-09T04:29:30.799Z,99675.53
2022-12-09T04:31:58.050Z,99692.00
2022-12-09T04:34:25.251Z,99685.66
2022-12-09T04:36:52.338Z,99689.25
2022-12-09T04:39:19.750Z,99691.53
2022-12-09T04:41:46.818Z,99685.88
2022-12-09T04:44:14.122Z,99680.59
2022-12-09T04:46:41.347Z,99689.09
2022-12-09T04:49:08.925Z,99689.22
2022-12-09T04:51:39.877Z,99680.25
2022-12-09T04:54:08.030Z,99667.59
2022-12-09T04:56:35.072Z,99671.31
2022-12-09T04:59:02.453Z,99677.41
2022-12-09T05:01:31.408Z,99671.44
2022-12-09T05:03:59.874Z,99662.81
2022-12-09T05:06:29.452Z,99674.66
2022-12-09T05:08:57.348Z,99672.66
2022-12-09T05:11:25.071Z,99665.28
2022-12-09T05:13:55.220Z,99665.44
2022-12-09T05:16:23.163Z,99668.06
2022-12-09T05:18:50.679Z,99662.66
2022-12-09T05:21:19.489Z,99665.06
2022-12-09T05:23:47.267Z,99663.38
2022-12-09T05:26:16.742Z,99657.75
2022-12-09T05:28:46.225Z,99665.66
2022-12-09T05:31:17.133Z,99662.66
2022-12-09T05:33:45.952Z,99658.81
2022-12-09T05:36:15.061Z,99663.94
2022-12-09T05:38:42.686Z,99652.97
2022-12-09T05:41:10.402Z,99641.53
2022-12-09T05:43:38.367Z,99651.31
2022-12-09T05:46:07.022Z,99653.22
2022-12-09T05:48:35.312Z,99659.19
2022-12-09T05:51:12.620Z,99656.31
2022-12-09T05:53:40.238Z,99655.47
2022-12-09T05:56:07.604Z,99658.22
2022-12-09T05:58:35.159Z,99654.75
2022-12-09T06:01:07.193Z,99653.78
2022-12-09T06:03:36.808Z,99649.75
2022-12-09T06:06:12.912Z,99661.31
2022-12-09T06:08:41.912Z,99648.75
2022-12-09T06:11:17.422Z,99651.38
2022-12-09T06:13:45.438Z,99646.13
2022-12-09T06:16:14.708Z,99642.41
2022-12-09T06:18:42.018Z,99637.28
2022-12-09T06:21:11.448Z,99646.44
2022-12-09T06:23:41.399Z,99641.19
2022-12-09T06:26:16.617Z,99644.97
2022-12-09T06:28:44.569Z,99635.63
2022-12-09T06:31:11.730Z,99633.00
2022-12-09T06:33:54.622Z,99641.47
2022-12-09T06:36:24.157Z,99633.81
2022-12-09T06:38:54.753Z,99630.09
2022-12-09T06:41:23.788Z,99632.22
2022-12-09T06:43:51.366Z,99622.78
2022-12-09T06:46:26.113Z,99623.88
2022-12-09T06:48:54.716Z,99630.22
2022-12-09T06:51:24.395Z,99622.78
2022-12-09T06:53:52.037Z,99623.25
2022-12-09T06:56:19.692Z,99627.16
2022-12-09T06:58:47.457Z,99628.38
2022-12-09T07:01:22.998Z,99623.94
2022-12-09T07:03:54.399Z,99640.59
2022-12-09T07:06:27.818Z,99644.69
2022-12-09T07:08:58.300Z,99641.06
2022-12-09T07:11:25.701Z,99644.09
2022-12-09T07:13:53.005Z,99641.91
2022-12-09T07:16:20.236Z,99628.03
2022-12-09T07:18:47.709Z,99646.69
2022-12-09T07:21:19.438Z,99632.22
2022-12-09T07:23:48.445Z,99635.56
2022-12-09T07:26:16.974Z,99639.34
2022-12-09T07:28:44.428Z,99639.22
2022-12-09T07:31:25.701Z,99630.75
2022-12-09T07:33:56.450Z,99629.09
2022-12-09T07:36:26.500Z,99635.06
2022-12-09T07:39:02.352Z,99627.00
2022-12-09T07:41:29.832Z,99625.63
2022-12-09T07:43:59.158Z,99624.28
2022-12-09T07:46:28.093Z,99632.03
2022-12-09T07:48:57.367Z,99617.34
2022-12-09T07:51:25.414Z,99624.00
2022-12-09T07:53:53.734Z,99629.28
2022-12-09T07:56:22.400Z,99629.53
2022-12-09T07:58:51.385Z,99624.00
2022-12-09T08:01:21.228Z,99613.47
2022-12-09T08:03:49.637Z,99608.91
2022-12-09T08:06:19.292Z,99596.84
2022-12-09T08:08:47.333Z,99596.75
2022-12-09T08:11:18.137Z,99580.50
2022-12-09T08:13:45.689Z,99581.34
2022-12-09T08:16:15.100Z,99581.63
2022-12-09T08:18:43.054Z,99588.03
2022-12-09T08:21:21.359Z,99571.41
2022-12-09T08:23:49.401Z,99578.09
2022-12-09T08:26:19.962Z,99559.41
2022-12-09T08:28:47.765Z,99557.50
2022-12-09T08:31:25.028Z,99553.13
2022-12-09T08:33:53.808Z,99538.00
2022-12-09T08:36:24.035Z,99543.19
2022-12-09T08:38:54.471Z,99551.09
2022-12-09T08:41:35.980Z,99541.81
2022-12-09T08:44:07.190Z,99545.16
2022-12-09T08:46:35.764Z,99543.88
2022-12-09T08:49:03.752Z,99533.94
2022-12-09T08:51:31.781Z,99529.38
2022-12-09T08:53:59.572Z,99535.84
2022-12-09T08:56:27.081Z,99525.88
2022-12-09T08:58:55.535Z,99526.97
2022-12-09T09:01:25.132Z,99528.22
2022-12-09T09:03:52.945Z,99524.06
2022-12-09T09:06:20.440Z,99528.94
2022-12-09T09:08:48.024Z,99521.84
2022-12-09T09:11:19.721Z,99513.81
2022-12-09T09:13:48.779Z,99511.69
2022-12-09T09:16:18.751Z,99517.13
2022-12-09T09:18:47.399Z,99518.06
2022-12-09T09:21:17.015Z,99503.38
2022-12-09T09:23:44.783Z,99517.47
2022-12-09T09:26:14.482Z,99503.22
2022-12-09T09:28:41.970Z,99497.34
2022-12-09T09:31:12.558Z,99498.06
2022-12-09T09:33:39.938Z,99488.53
2022-12-09T09:36:10.604Z,99486.47
2022-12-09T09:38:40.238Z,99478.72
2022-12-09T09:41:20.311Z,99481.09
2022-12-09T09:43:47.811Z,99483.19
2022-12-09T09:46:25.013Z,99476.00
2022-12-09T09:48:53.166Z,99470.56
2022-12-09T09:51:21.887Z,99465.56
2022-12-09T09:53:51.335Z,99465.16
2022-12-09T09:56:30.665Z,99462.53
2022-12-09T09:59:27.096Z,99454.47
2022-12-09T10:02:03.195Z,99460.16
2022-12-09T10:04:58.127Z,99453.50
2022-12-09T10:07:43.722Z,99461.25
2022-12-09T10:10:17.229Z,99455.16
2022-12-09T10:12:50.787Z,99452.81
2022-12-09T10:15:29.506Z,99451.00
2022-12-09T10:18:11.963Z,99442.69
2022-12-09T10:20:40.004Z,99446.44
2022-12-09T10:23:12.923Z,99440.03
2022-12-09T10:25:49.993Z,99449.88
2022-12-09T10:28:37.237Z,99434.34
2022-12-09T10:31:04.780Z,99423.25
2022-12-09T10:33:39.986Z,99433.94
2022-12-09T10:36:20.781Z,99437.28
2022-12-09T10:38:48.725Z,99417.16
2022-12-09T10:41:59.085Z,99431.59
2022-12-09T10:44:27.565Z,99416.03
2022-12-09T10:47:06.327Z,99415.34
2022-12-09T10:52:22.990Z,99417.72
2022-12-09T10:54:50.224Z,99411.75
2022-12-09T10:57:17.724Z,99408.81
2022-12-09T11:00:21.702Z,99415.50
2022-12-09T11:02:54.743Z,99399.09
2022-12-09T11:05:36.751Z,99396.63
2022-12-09T11:08:04.988Z,99405.66
2022-12-09T11:10:33.288Z,99404.53
2022-12-09T11:13:09.003Z,99413.97
2022-12-09T11:15:36.065Z,99402.31
2022-12-09T11:18:04.695Z,99402.19
2022-12-09T11:20:33.700Z,99392.75
2022-12-09T11:23:07.323Z,99395.25
2022-12-09T11:25:36.831Z,99391.94
2022-12-09T11:28:16.555Z,99396.09
2022-12-09T11:31:27.262Z,99403.59
2022-12-09T11:33:52.121Z,99383.63
2022-12-09T11:36:29.922Z,99386.50
2022-12-09T11:39:28.789Z,99396.91
2022-12-09T11:42:17.179Z,99387.47
2022-12-09T11:44:50.494Z,99378.75
2022-12-09T11:47:24.595Z,99370.03
2022-12-09T11:49:56.676Z,99367.09
2022-12-09T11:52:27.355Z,99368.34
2022-12-09T11:55:18.768Z,99366.56
2022-12-09T11:57:52.490Z,99369.03
2022-12-09T12:00:23.110Z,99363.78
2022-12-09T12:03:04.967Z,99373.88
2022-12-09T12:05:34.827Z,99367.09
2022-12-09T12:08:07.967Z,99357.94
2022-12-09T12:10:39.843Z,99367.34
2022-12-09T12:13:29.607Z,99373.84
2022-12-09T12:16:05.595Z,99362.50
2022-12-09T12:19:06.912Z,99361.56
2022-12-09T12:22:11.574Z,99366.91
2022-12-09T12:24:58.272Z,99367.19
2022-12-09T12:27:44.990Z,99377.31
2022-12-09T12:30:20.177Z,99370.38
2022-12-09T12:33:40.795Z,99372.34
2022-12-09T12:36:01.181Z,99368.84
2022-12-09T12:39:05.330Z,99375.22
2022-12-09T12:41:42.761Z,99364.03
2022-12-09T12:44:41.895Z,99371.34
2022-12-09T12:47:18.191Z,99365.38
2022-12-09T12:50:01.399Z,99368.72
2022-12-09T12:52:56.377Z,99366.78
2022-12-09T12:55:54.506Z,99371.91
2022-12-09T12:59:04.258Z,99376.88
2022-12-09T13:01:53.650Z,99383.53
2022-12-09T13:04:40.478Z,99380.19
2022-12-09T13:07:41.060Z,99377.94
2022-12-09T13:10:24.165Z,99373.66
2022-12-09T13:13:01.714Z,99363.81
2022-12-09T13:15:36.751Z,99363.56
2022-12-09T13:18:29.753Z,99364.41
2022-12-09T13:20:58.946Z,99368.41
2022-12-09T13:23:50.403Z,99360.75
2022-12-09T13:26:20.507Z,99368.53
2022-12-09T13:28:55.315Z,99356.06
2022-12-09T13:31:23.981Z,99358.81
2022-12-09T13:34:19.351Z,99353.84
2022-12-09T13:36:48.399Z,99358.97
2022-12-09T13:39:40.224Z,99346.38
2022-12-09T13:42:47.071Z,99345.53
2022-12-09T13:45:23.919Z,99350.50
2022-12-09T13:47:53.456Z,99356.59
2022-12-09T13:50:36.801Z,99342.72
2022-12-09T13:53:27.119Z,99353.69
2022-12-09T13:56:06.390Z,99354.13
2022-12-09T13:58:46.556Z,99351.34
2022-12-09T14:01:13.699Z,99335.53
2022-12-09T14:04:16.045Z,99335.81
2022-12-09T14:06:46.396Z,99336.25
2022-12-09T14:09:31.420Z,99327.81
2022-12-09T14:12:00.867Z,99323.91
2022-12-09T14:14:27.779Z,99328.09
2022-12-09T14:16:56.766Z,99309.63
2022-12-09T14:19:26.584Z,99328.06
2022-12-09T14:22:19.310Z,99329.44
2022-12-09T14:24:58.855Z,99311.97
2022-12-09T14:27:31.045Z,99312.78
2022-12-09T14:30:02.051Z,99311.13
2022-12-09T14:32:53.887Z,99319.34
2022-12-09T14:35:45.198Z,99320.16
2022-12-09T14:38:30.193Z,99313.09
2022-12-09T14:41:28.041Z,99293.84
2022-12-09T14:44:03.758Z,99282.34
2022-12-09T14:46:41.386Z,99287.44
2022-12-09T14:49:26.259Z,99283.59
2022-12-09T14:51:59.384Z,99262.13
2022-12-09T14:54:36.313Z,99278.16
2022-12-09T14:57:07.349Z,99294.22
2022-12-09T14:59:34.737Z,99285.13
2022-12-09T15:02:15.203Z,99282.19
2022-12-09T15:04:49.874Z,99292.59
2022-12-09T15:07:27.511Z,99295.91
2022-12-09T15:09:57.189Z,99297.88
2022-12-09T15:12:37.033Z,99308.94
2022-12-09T15:15:10.301Z,99307.41
2022-12-09T15:17:59.816Z,99304.91
2022-12-09T15:20:32.093Z,99306.84
2022-12-09T15:23:45.238Z,99314.47
2022-12-09T15:26:39.242Z,99317.38
2022-12-09T15:29:06.681Z,99311.00
2022-12-09T15:31:34.792Z,99311.13
2022-12-09T15:34:11.580Z,99291.91
2022-12-09T15:36:42.050Z,99295.34
2022-12-09T15:39:12.005Z,99298.53
2022-12-09T15:42:12.075Z,99282.09
2022-12-09T15:44:41.340Z,99279.88
2022-12-09T15:47:15.413Z,99267.41
2022-12-09T15:49:54.172Z,99268.38
2022-12-09T15:52:28.049Z,99278.63
2022-12-09T15:54:55.423Z,99286.81
2022-12-09T15:57:22.782Z,99273.91
2022-12-09T15:59:56.420Z,99281.81
2022-12-09T16:02:29.323Z,99296.75
2022-12-09T16:05:00.737Z,99286.25
2022-12-09T16:07:28.026Z,99268.91
2022-12-09T16:10:13.341Z,99275.44
2022-12-09T16:12:41.514Z,99260.19
2022-12-09T16:15:14.233Z,99265.63
2022-12-09T16:17:56.142Z,99259.94
2022-12-09T16:20:36.204Z,99264.66
2022-12-09T16:23:10.100Z,99268.25
2022-12-09T16:25:42.392Z,99265.19
2022-12-09T16:28:28.918Z,99259.94
2022-12-09T16:31:03.208Z,99256.34
2022-12-09T16:33:35.258Z,99256.63
2022-12-09T16:36:07.233Z,99253.31
2022-12-09T16:38:36.884Z,99257.16
2022-12-09T16:41:11.584Z,99259.38
2022-12-09T16:43:56.762Z,99262.28
2022-12-09T16:46:26.687Z,99264.47
2022-12-09T16:48:53.792Z,99253.94
2022-12-09T16:51:24.802Z,99268.88
2022-12-09T16:53:52.871Z,99270.91
2022-12-09T16:56:25.654Z,99277.03
2022-12-09T16:58:53.563Z,99288.53
2022-12-09T17:01:23.850Z,99288.56
2022-12-09T17:03:52.810Z,99274.19
2022-12-09T17:06:22.064Z,99261.44
2022-12-09T17:08:49.089Z,99270.72
2022-12-09T17:11:17.355Z,99266.88
2022-12-09T17:13:44.641Z,99270.22
2022-12-09T17:16:11.759Z,99272.56
2022-12-09T17:18:39.730Z,99274.91
2022-12-09T17:21:13.336Z,99261.06
2022-12-09T17:23:41.956Z,99276.44
2022-12-09T17:26:11.432Z,99257.06
2022-12-09T17:28:41.773Z,99272.97
2022-12-09T17:31:11.253Z,99270.78
2022-12-09T17:33:38.543Z,99273.94
2022-12-09T17:36:06.663Z,99272.41
2022-12-09T17:38:36.194Z,99279.63
2022-12-09T17:41:05.359Z,99261.78
2022-12-09T17:43:33.872Z,99263.72
2022-12-09T17:48:43.778Z,99266.34
2022-12-09T17:51:15.444Z,99261.22
2022-12-09T17:53:43.169Z,99261.50
2022-12-09T17:56:36.182Z,99254.59
2022-12-09T17:59:07.502Z,99255.00
2022-12-09T18:01:36.434Z,99253.19
2022-12-09T18:04:10.290Z,99243.34
2022-12-09T18:06:39.821Z,99239.22
2022-12-09T18:09:09.354Z,99241.69
2022-12-09T18:11:36.855Z,99235.06
2022-12-09T18:14:04.409Z,99228.69
2022-12-09T18:16:32.546Z,99236.28
2022-12-09T18:19:09.954Z,99230.63
2022-12-09T18:21:37.007Z,99230.88
2022-12-09T18:24:04.418Z,99230.63
2022-12-09T18:26:36.658Z,99223.25
2022-12-09T18:29:06.753Z,99218.69
2022-12-09T18:31:36.449Z,99214.13
2022-12-09T18:34:09.394Z,99203.72
2022-12-09T18:36:37.949Z,99198.75
2022-12-09T18:39:05.616Z,99202.78
2022-12-09T18:41:33.400Z,99203.44
2022-12-09T18:44:05.512Z,99192.66
2022-12-09T18:46:37.852Z,99211.03
2022-12-09T18:49:23.760Z,99199.41
2022-12-09T18:51:52.818Z,99182.94
2022-12-09T18:54:24.766Z,99186.53
2022-12-09T18:56:52.259Z,99188.75
2022-12-09T18:59:22.282Z,99183.59
2022-12-09T19:01:49.812Z,99187.63
2022-12-09T19:04:19.282Z,99178.19
2022-12-09T19:06:48.166Z,99172.41
2022-12-09T19:09:27.111Z,99173.06
2022-12-09T19:11:55.784Z,99162.97
2022-12-09T19:14:23.308Z,99173.22
2022-12-09T19:16:51.378Z,99165.75
2022-12-09T19:19:23.917Z,99162.59
2022-12-09T19:21:53.368Z,99158.44
2022-12-09T19:24:28.316Z,99155.78
2022-12-09T19:26:57.914Z,99154.41
2022-12-09T19:29:25.848Z,99157.72
2022-12-09T19:31:54.059Z,99160.22
2022-12-09T19:34:29.088Z,99154.41
2022-12-09T19:37:00.297Z,99156.72
2022-12-09T19:39:34.256Z,99162.81
2022-12-09T19:42:02.267Z,99162.81
2022-12-09T19:45:00.955Z,99154.41
2022-12-09T19:47:17.051Z,99157.16
2022-12-09T19:49:44.629Z,99165.75
2022-12-09T19:52:12.662Z,99161.47
2022-12-09T19:54:39.898Z,99166.72
2022-12-09T19:57:07.199Z,99161.06
2022-12-09T19:59:35.607Z,99158.84
2022-12-09T20:02:02.716Z,99153.56
2022-12-09T20:07:35.922Z,99128.50
2022-12-09T20:10:02.851Z,99164.75
2022-12-09T20:12:30.767Z,99161.88
2022-12-09T20:17:41.371Z,99170.72
2022-12-09T20:20:09.324Z,99172.72
2022-12-09T20:22:36.515Z,99200.13
2022-12-09T20:25:03.436Z,99192.66
2022-12-09T20:27:30.728Z,99181.03
2022-12-09T20:29:57.814Z,99185.06
2022-12-09T20:32:25.037Z,99174.94
2022-12-09T20:34:53.781Z,99181.84
2022-12-09T20:37:28.300Z,99175.75
2022-12-09T20:39:55.358Z,99186.81
2022-12-09T20:42:22.400Z,99172.72
2022-12-09T20:44:49.498Z,99180.75
2022-12-09T20:47:16.577Z,99183.66
2022-12-09T20:49:48.196Z,99162.19
2022-12-09T20:52:15.187Z,99161.38
2022-12-09T20:54:42.196Z,99182.13
2022-12-09T20:57:10.692Z,99171.06
2022-12-09T20:59:37.927Z,99165.81
2022-12-09T21:02:09.490Z,99163.72
2022-12-09T21:04:39.192Z,99169.81
2022-12-09T21:07:06.585Z,99171.59
2022-12-09T21:09:33.910Z,99161.66
2022-12-09T21:12:00.870Z,99160.97
2022-12-09T21:14:33.014Z,99171.91
2022-12-09T21:17:00.346Z,99167.16
2022-12-09T21:19:30.149Z,99145.00
2022-12-09T21:21:57.211Z,99160.66
2022-12-09T21:24:24.823Z,99160.38
2022-12-09T21:26:56.078Z,99159.97
2022-12-09T21:29:29.879Z,99151.78
2022-12-09T21:31:59.405Z,99146.97
2022-12-09T21:34:27.388Z,99133.53
2022-12-09T21:36:55.676Z,99131.72
2022-12-09T21:39:22.756Z,99130.75
2022-12-09T21:41:50.210Z,99128.25
2022-12-09T21:44:19.126Z,99118.41
2022-12-09T21:46:46.280Z,99125.03
2022-12-09T21:49:13.736Z,99111.19
2022-12-09T21:51:41.165Z,99116.03
2022-12-09T21:54:08.376Z,99116.56
2022-12-09T21:56:39.346Z,99115.03
2022-12-09T21:59:07.495Z,99111.31
2022-12-09T22:01:38.058Z,99112.00
2022-12-09T22:04:08.484Z,99098.16
2022-12-09T22:06:35.809Z,99097.75
2022-12-09T22:09:04.331Z,99098.03
2022-12-09T22:11:34.772Z,99098.72
2022-12-09T22:14:02.546Z,99099.44
2022-12-09T22:16:32.760Z,99105.09
2022-12-09T22:19:00.983Z,99107.03
2022-12-09T22:21:30.004Z,99110.66
2022-12-09T22:23:59.452Z,99120.19
2022-12-09T22:26:27.013Z,99120.19
2022-12-09T22:28:54.755Z,99115.22
2022-12-09T22:31:30.583Z,99120.06
2022-12-09T22:34:01.091Z,99117.84
2022-12-09T22:36:29.678Z,99114.94
2022-12-09T22:38:56.730Z,99115.63
2022-12-09T22:41:25.846Z,99116.22
2022-12-09T22:43:54.636Z,99109.84
2022-12-09T22:46:30.348Z,99112.47
2022-12-09T22:49:00.819Z,99102.34
2022-12-09T22:51:29.582Z,99116.88
2022-12-09T22:53:57.553Z,99103.28
2022-12-09T22:56:25.446Z,99104.25
2022-12-09T22:58:52.637Z,99105.63
2022-12-09T23:01:32.971Z,99105.31
2022-12-09T23:04:00.502Z,99102.28
2022-12-09T23:06:28.561Z,99096.75
2022-12-09T23:08:56.203Z,99097.19
2022-12-09T23:11:25.675Z,99091.38
2022-12-09T23:13:53.301Z,99107.13
2022-12-09T23:16:24.950Z,99093.19
2022-12-09T23:18:53.018Z,99101.88
2022-12-09T23:21:23.871Z,99104.78
2022-12-09T23:23:59.360Z,99111.31
2022-12-09T23:26:28.609Z,99088.38
2022-12-09T23:28:58.999Z,99107.63
2022-12-09T23:31:32.372Z,99120.47
2022-12-09T23:34:00.824Z,99095.69
2022-12-09T23:36:31.247Z,99097.22
2022-12-09T23:38:58.860Z,99098.31
2022-12-09T23:41:26.116Z,99104.97
2022-12-09T23:43:54.077Z,99103.16
2022-12-09T23:46:23.954Z,99100.91
2022-12-09T23:48:52.245Z,99087.34
2022-12-09T23:51:25.193Z,99084.44
2022-12-09T23:53:54.560Z,99081.41
2022-12-09T23:56:23.921Z,99110.31
2022-12-09T23:59:04.985Z,99123.03
